Aérodrome :
LOGIN :

S'inscrire | Disclaimer

   EN    FR    IT 

 










Légende :    VFR   VFR Marginal   IFR   IFR Intensif   IFR Très Intensif
Visi : 
Plafond : 
>= 8 km
>= 3000ft
5 à 8 km
1000 à 3000 ft
1500m à 5 km
500 à 1000 ft
800 à 1500m
200 à 500 ft
< 800m
< 200 ft
Symboles :   Orages  Brouillard  Fortes neiges  Fortes précipitations  Vent > 20 kt
SIGMETs :   Divers  Orages  Givrage  Turbulence  Onde Orograph.  Cendres Volcan.







- Altitude de l'aérodrome : 1306 ft
- Code IATA : ACH


LSZR - Alten Rhein

DERNIER METAR :
  • 220550Z VRB02KT 9999 SCT044 BKN050 10/06 Q1017 NOSIG RMK A

METARs EXPIRÉS :
  • 220520Z VRB01KT 9999 SCT044 BKN050 10/07 Q1017 NOSIG RMK A
  • 220450Z AUTO VRB02KT 9999 OVC043 09/07 Q1017
  • 220420Z AUTO VRB02KT 9999 BKN038 BKN043 08/07 Q1018
  • 220350Z AUTO VRB03KT 9999 SCT036 BKN043 09/08 Q1018
  • 220320Z AUTO VRB03KT 9999 BKN031 08/07 Q1018

TAF TAF LSZR
Valide du 22 à 06h jusqu'au 22 à 15h UTC


220525Z 2206/2215 VRB03KT 9999 SCT030 BKN040
BECMG 2207/2210 26008KT
PROB40
TEMPO 2212/2215 SCT040
ATIS : +41 71 858 51 66
Pas de NOTAMs connus pour ce terrain.



MET'MAP, la Météo Aéronautique d'un coup d'oeil ! - Copyright ORBIFLY Décembre 2007 - Disclaimer

ORBIFLY MET'MAP TEAM :

Programmation & Développement : Alexandra Zaïnal
Conception & Développement : Baudouin d'Aumeries
Co-Programmation & Développement : Marc-Olivier Méhu
Soutien technique & logistique : Manuel Goepfert

Contact : metmap@orbifly.com




SOURCES & CREDITS :

   NOAA